< < Back
Terminal Aerodrome Forecast


Current Version              Previous Versions:   1  2  3  4  5  6  7  8  9  

Terminal Aerodrome Forecast

407
FTUS42 KFFC 251741
TAFMCN
TAF
KMCN 251741Z 2518/2618 22007KT P6SM BKN060
      TEMPO 2519/2522 VRB12KT 4SM -TSRA BR BKN035CB
     FM252300 27006KT P6SM SCT070
     FM260200 24003KT P6SM SCT100
     FM261600 24006KT P6SM SCT035=



Latest METAR

284
SAUS80 KWBC 261000 RRB
MTRMCN
METAR KMCN 260953Z AUTO 00000KT 10SM CLR 23/21 A3004 RMK AO2 SLP167
T02330211 TSNO


USA.gov is the U.S. government's official web portal to all federal, state and local government web resources and services.